^^
Station Historical Data
Daily Summary for November 8, 2017 Units:  English    Metric   Both
« Previous Day
Next Day »
Daily Weekly Monthly Yearly Custom
  High: Low: Average:
Temperature: 46.0 °F 35.2 °F 39.3 °F
Dew Point: 38.9 °F 31.9 °F 35.5 °F
Humidity: 95% 74% 86%
Wind Speed: 5.0mph 0.0mph 0.6mph
Wind Gust: 13.0mph - -
Wind- - WNW
Pressure: 30.30 in 30.19 in -
Precipitation: 0.00 in    
Historical Graphs
 
 
Tabular Data for November 8, 2017
Time Temperature Dew Point Pressure Wind Wind Speed Wind Gust Humidity Rainfall Rate (Hourly) Conditions
00:09 35.5 °F 34.2 °F 30.20 in NNW 1.0 mph 7.0 mph 95% 0.00 in -RA
00:19 35.5 °F 34.2 °F 30.20 in NW 2.0 mph 7.0 mph 95% 0.00 in -RA
00:30 35.5 °F 34.2 °F 30.19 in NW 1.0 mph 8.0 mph 95% 0.00 in -RA
00:39 35.5 °F 34.2 °F 30.20 in Calm   6.0 mph 95% 0.00 in -RA
00:49 35.6 °F 34.3 °F 30.19 in NNW 1.0 mph 4.0 mph 95% 0.00 in -RA
00:59 35.7 °F 34.4 °F 30.19 in Calm   4.0 mph 95% 0.00 in -RA
01:09 35.8 °F 34.5 °F 30.19 in Calm   6.0 mph 95% 0.00 in BKN
01:19 35.9 °F 34.6 °F 30.20 in Calm   6.0 mph 95% 0.00 in BKN
01:29 35.9 °F 34.6 °F 30.19 in NNW 1.0 mph 6.0 mph 95% 0.00 in BKN
01:40 36.0 °F 34.7 °F 30.20 in Calm   5.0 mph 95% 0.00 in BKN
01:50 36.1 °F 34.8 °F 30.20 in Calm   5.0 mph 95% 0.00 in BKN
01:59 36.1 °F 34.8 °F 30.21 in Calm   6.0 mph 95% 0.00 in BKN
02:10 36.2 °F 34.9 °F 30.20 in Calm   3.0 mph 95% 0.00 in OVC
02:19 36.3 °F 35.0 °F 30.20 in NNW 1.0 mph 2.0 mph 95% 0.00 in OVC
02:30 36.3 °F 35.0 °F 30.20 in Calm   4.0 mph 95% 0.00 in OVC
02:39 36.4 °F 35.1 °F 30.20 in NNW 1.0 mph 4.0 mph 95% 0.00 in OVC
02:50 36.4 °F 35.1 °F 30.20 in NNW 1.0 mph 7.0 mph 95% 0.00 in OVC
02:59 36.4 °F 35.1 °F 30.20 in NW 1.0 mph 5.0 mph 95% 0.00 in OVC
03:09 36.5 °F 35.2 °F 30.20 in NW 2.0 mph 6.0 mph 95% 0.00 in OVC
03:19 36.5 °F 34.9 °F 30.20 in NNW 5.0 mph 9.0 mph 94% 0.00 in OVC
03:30 36.6 °F 35.0 °F 30.20 in NW 1.0 mph 6.0 mph 94% 0.00 in OVC
03:39 36.7 °F 35.1 °F 30.21 in NW 1.0 mph 4.0 mph 94% 0.00 in OVC
03:49 36.6 °F 35.0 °F 30.21 in NNW 1.0 mph 7.0 mph 94% 0.00 in OVC
04:00 36.6 °F 35.0 °F 30.21 in NW 2.0 mph 9.0 mph 94% 0.00 in OVC
04:10 36.5 °F 34.7 °F 30.21 in Calm   9.0 mph 93% 0.00 in OVC
04:20 36.6 °F 34.8 °F 30.22 in NW 1.0 mph 5.0 mph 93% 0.00 in OVC
04:30 36.6 °F 34.8 °F 30.22 in Calm   4.0 mph 93% 0.00 in OVC
04:40 36.6 °F 34.7 °F 30.22 in NW 1.0 mph 4.0 mph 93% 0.00 in OVC
04:50 36.4 °F 34.6 °F 30.22 in Calm   5.0 mph 93% 0.00 in OVC
05:00 36.4 °F 34.6 °F 30.23 in Calm   4.0 mph 93% 0.00 in OVC
05:10 36.2 °F 34.1 °F 30.23 in Calm   3.0 mph 92% 0.00 in OVC
05:20 36.1 °F 34.0 °F 30.24 in Calm   4.0 mph 92% 0.00 in OVC
05:30 36.0 °F 33.9 °F 30.24 in North 1.0 mph 6.0 mph 92% 0.00 in OVC
05:40 35.8 °F 33.4 °F 30.24 in Calm   10.0 mph 91% 0.00 in OVC
05:50 35.8 °F 33.4 °F 30.24 in WNW 1.0 mph 3.0 mph 91% 0.00 in OVC
06:00 35.6 °F 33.2 °F 30.25 in NW 1.0 mph 4.0 mph 91% 0.00 in OVC
06:10 35.4 °F 32.8 °F 30.25 in Calm   3.0 mph 90% 0.00 in BKN
06:20 35.2 °F 32.3 °F 30.26 in NW 1.0 mph 6.0 mph 89% 0.00 in BKN
06:30 35.2 °F 32.3 °F 30.27 in Calm   7.0 mph 89% 0.00 in BKN
06:40 35.2 °F 32.3 °F 30.26 in Calm   4.0 mph 89% 0.00 in BKN
06:50 35.3 °F 32.1 °F 30.27 in North 3.0 mph 7.0 mph 88% 0.00 in BKN
07:00 35.4 °F 32.2 °F 30.28 in NW 1.0 mph 4.0 mph 88% 0.00 in BKN
07:10 35.5 °F 32.3 °F 30.28 in NW 1.0 mph 3.0 mph 88% 0.00 in BKN
07:20 35.4 °F 31.9 °F 30.28 in NW 1.0 mph 6.0 mph 87% 0.00 in BKN
07:30 35.5 °F 32.0 °F 30.28 in NNW 1.0 mph 4.0 mph 87% 0.00 in BKN
07:40 35.6 °F 32.1 °F 30.29 in Calm   6.0 mph 87% 0.00 in BKN
07:50 35.9 °F 32.7 °F 30.29 in Calm   2.0 mph 88% 0.00 in BKN
08:00 36.0 °F 32.5 °F 30.29 in NNW 1.0 mph 3.0 mph 87% 0.00 in BKN
08:10 36.2 °F 32.7 °F 30.29 in NNW 1.0 mph 5.0 mph 87% 0.00 in BKN
08:20 36.4 °F 32.9 °F 30.29 in WNW 1.0 mph 6.0 mph 87% 0.00 in BKN
08:30 36.6 °F 33.1 °F 30.29 in NNW 1.0 mph 8.0 mph 87% 0.00 in BKN
08:40 36.8 °F 33.0 °F 30.28 in North 2.0 mph 9.0 mph 86% 0.00 in BKN
08:50 37.2 °F 33.4 °F 30.29 in North 2.0 mph 13.0 mph 86% 0.00 in BKN
09:00 37.6 °F 33.8 °F 30.29 in NNW 2.0 mph 5.0 mph 86% 0.00 in BKN
09:10 37.9 °F 33.8 °F 30.30 in NNW 1.0 mph 8.0 mph 85% 0.00 in BKN
09:20 38.4 °F 33.9 °F 30.29 in NNW 1.0 mph 6.0 mph 84% 0.00 in BKN
09:30 39.0 °F 34.6 °F 30.30 in NNW 1.0 mph 6.0 mph 84% 0.00 in BKN
09:40 39.1 °F 34.4 °F 30.29 in NW 3.0 mph 9.0 mph 83% 0.00 in BKN
09:50 39.7 °F 35.0 °F 30.29 in Calm   8.0 mph 83% 0.00 in BKN
10:00 40.1 °F 35.0 °F 30.29 in NNW 3.0 mph 8.0 mph 82% 0.00 in BKN
10:10 40.6 °F 35.2 °F 30.29 in NNW 3.0 mph 4.0 mph 81% 0.00 in BKN
10:30 41.0 °F 35.3 °F 30.29 in NNE 1.0 mph 7.0 mph 80% 0.00 in BKN
10:40 42.0 °F 35.9 °F 30.28 in North 2.0 mph 5.0 mph 79% 0.00 in BKN
10:50 42.5 °F 36.8 °F 30.28 in North 1.0 mph 10.0 mph 80% 0.00 in BKN
11:10 43.1 °F 36.7 °F 30.28 in North 2.0 mph 6.0 mph 78% 0.00 in BKN
11:20 42.8 °F 36.4 °F 30.28 in NNW 1.0 mph 6.0 mph 78% 0.00 in BKN
11:30 43.4 °F 37.0 °F 30.28 in Calm   3.0 mph 78% 0.00 in BKN
11:40 43.4 °F 37.0 °F 30.28 in Calm   4.0 mph 78% 0.00 in BKN
11:50 43.3 °F 36.9 °F 30.27 in WNW 1.0 mph 5.0 mph 78% 0.00 in BKN
12:00 43.7 °F 37.0 °F 30.27 in NNW 1.0 mph 4.0 mph 77% 0.00 in BKN
12:10 43.9 °F 37.5 °F 30.27 in NW 1.0 mph 5.0 mph 78% 0.00 in BKN
12:20 44.1 °F 37.3 °F 30.27 in NNW 3.0 mph 6.0 mph 77% 0.00 in BKN
12:30 43.7 °F 37.0 °F 30.26 in North 1.0 mph 5.0 mph 77% 0.00 in BKN
12:40 44.4 °F 37.6 °F 30.26 in Calm   3.0 mph 77% 0.00 in BKN
12:50 44.5 °F 37.4 °F 30.26 in North 1.0 mph 4.0 mph 76% 0.00 in BKN
13:00 44.7 °F 37.9 °F 30.25 in North 2.0 mph 5.0 mph 77% 0.00 in BKN
13:10 45.2 °F 38.1 °F 30.25 in NW 3.0 mph 8.0 mph 76% 0.00 in BKN
13:20 45.5 °F 38.4 °F 30.25 in NNW 1.0 mph 4.0 mph 76% 0.00 in BKN
13:30 45.4 °F 38.3 °F 30.25 in Calm   4.0 mph 76% 0.00 in BKN
13:40 45.5 °F 38.4 °F 30.25 in NNW 1.0 mph 6.0 mph 76% 0.00 in BKN
13:50 45.6 °F 38.1 °F 30.25 in NNW 1.0 mph 5.0 mph 75% 0.00 in BKN
14:00 45.9 °F 38.7 °F 30.25 in Calm   3.0 mph 76% 0.00 in BKN
14:10 46.0 °F 38.2 °F 30.25 in Calm   4.0 mph 74% 0.00 in BKN
14:20 46.0 °F 38.5 °F 30.25 in NNW 1.0 mph 5.0 mph 75% 0.00 in BKN
14:30 45.7 °F 38.2 °F 30.25 in WNW 1.0 mph 6.0 mph 75% 0.00 in BKN
14:40 46.0 °F 38.9 °F 30.25 in NNE 1.0 mph 4.0 mph 76% 0.00 in BKN
14:50 45.8 °F 38.7 °F 30.25 in Calm   4.0 mph 76% 0.00 in BKN
15:00 45.7 °F 38.2 °F 30.26 in Calm   3.0 mph 75% 0.00 in BKN
15:10 45.8 °F 38.7 °F 30.26 in Calm   3.0 mph 76% 0.00 in BKN
15:20 45.9 °F 38.8 °F 30.26 in NW 1.0 mph 4.0 mph 76% 0.00 in BKN
15:30 45.9 °F 38.4 °F 30.26 in NW 1.0 mph 3.0 mph 75% 0.00 in BKN
15:40 45.9 °F 38.8 °F 30.26 in Calm   2.0 mph 76% 0.00 in BKN
15:50 45.8 °F 38.7 °F 30.26 in Calm   5.0 mph 76% 0.00 in BKN
16:00 45.6 °F 38.5 °F 30.26 in Calm   4.0 mph 76% 0.00 in BKN
16:10 45.5 °F 38.4 °F 30.26 in Calm   1.0 mph 76% 0.00 in BKN
16:20 45.3 °F 38.5 °F 30.26 in Calm   1.0 mph 77% 0.00 in BKN
16:30 44.9 °F 38.1 °F 30.26 in Calm   1.0 mph 77% 0.00 in BKN
16:40 44.3 °F 38.5 °F 30.26 in Calm     80% 0.00 in BKN
16:50 43.5 °F 37.8 °F 30.27 in Calm     80% 0.00 in BKN
17:00 42.9 °F 37.5 °F 30.27 in Calm     81% 0.00 in BKN
17:10 42.4 °F 37.6 °F 30.27 in Calm     83% 0.00 in BKN
17:20 42.2 °F 37.5 °F 30.27 in Calm     83% 0.00 in BKN
17:30 42.2 °F 37.7 °F 30.28 in Calm     84% 0.00 in BKN
17:40 41.9 °F 37.4 °F 30.28 in Calm     84% 0.00 in BKN
17:50 41.6 °F 37.5 °F 30.28 in Calm     85% 0.00 in BKN
18:00 41.4 °F 37.2 °F 30.29 in Calm     85% 0.00 in BKN
18:10 41.1 °F 36.9 °F 30.28 in Calm     85% 0.00 in BKN
18:20 40.7 °F 36.8 °F 30.29 in Calm   1.0 mph 86% 0.00 in BKN
18:30 40.4 °F 36.8 °F 30.29 in Calm   1.0 mph 87% 0.00 in BKN
18:40 40.2 °F 36.6 °F 30.29 in Calm   1.0 mph 87% 0.00 in BKN
18:50 39.9 °F 36.3 °F 30.29 in Calm     87% 0.00 in BKN
19:00 39.7 °F 36.1 °F 30.30 in Calm     87% 0.00 in BKN
19:10 39.4 °F 36.1 °F 30.30 in Calm     88% 0.00 in OVC
19:20 39.2 °F 35.9 °F 30.30 in Calm   1.0 mph 88% 0.00 in OVC
19:30 39.0 °F 36.0 °F 30.30 in Calm   1.0 mph 89% 0.00 in OVC
19:40 38.7 °F 35.7 °F 30.30 in Calm     89% 0.00 in OVC
19:50 38.5 °F 35.5 °F 30.30 in Calm     89% 0.00 in OVC
20:00 38.4 °F 35.4 °F 30.30 in Calm     89% 0.00 in OVC
20:10 38.2 °F 35.5 °F 30.30 in Calm     90% 0.00 in FEW
20:20 38.1 °F 35.4 °F 30.30 in Calm     90% 0.00 in FEW
20:30 38.1 °F 35.4 °F 30.30 in Calm     90% 0.00 in FEW
20:40 38.1 °F 35.4 °F 30.30 in Calm     90% 0.00 in FEW
20:50 38.0 °F 35.6 °F 30.30 in Calm     91% 0.00 in FEW
21:00 38.0 °F 35.6 °F 30.29 in Calm     91% 0.00 in FEW
21:10 37.9 °F 35.5 °F 30.29 in Calm     91% 0.00 in CLR
21:20 37.8 °F 35.4 °F 30.29 in Calm     91% 0.00 in CLR
21:30 37.5 °F 35.4 °F 30.29 in Calm     92% 0.00 in CLR
21:40 37.3 °F 35.2 °F 30.28 in Calm     92% 0.00 in CLR
21:50 36.9 °F 34.8 °F 30.29 in Calm     92% 0.00 in CLR
22:00 36.8 °F 34.7 °F 30.28 in Calm     92% 0.00 in CLR
22:10 36.6 °F 34.5 °F 30.28 in Calm     92% 0.00 in CLR
22:20 36.5 °F 34.4 °F 30.28 in Calm     92% 0.00 in CLR
22:30 36.6 °F 34.5 °F 30.28 in Calm     92% 0.00 in CLR
22:40 36.5 °F 34.4 °F 30.27 in Calm     92% 0.00 in CLR
23:10 36.3 °F 33.9 °F 30.26 in Calm     91% 0.00 in CLR
23:20 36.2 °F 33.8 °F 30.26 in Calm     91% 0.00 in CLR
23:30 35.9 °F 33.5 °F 30.26 in Calm     91% 0.00 in CLR
23:40 35.7 °F 33.3 °F 30.27 in Calm     91% 0.00 in CLR
23:50 35.5 °F 33.1 °F 30.27 in Calm     91% 0.00 in CLR
TarryTown NY Weather
Compliments of Weather Underground - 1.75 mb